Time;durP1;ratioP1;P1;durP2;ratioP2;P2;SDS_P1;SDS_P2;PMS_P1;PMS_P2;Temp;Humidity;BMP_temperature;BMP_pressure;BME280_temperature;BME280_humidity;BME280_pressure;Samples;Min_cycle;Max_cycle;Signal;HPM_P1;HPM_P2
2023/09/16 00:00:08;;;;;;;20.67;17.30;;;14.90;99.90;;;;;;2064790;28;20218;-81
2023/09/16 00:01:09;;;;;;;18.52;16.25;;;14.90;99.90;;;;;;2057143;28;20183;-82
2023/09/16 00:02:09;;;;;;;21.63;17.70;;;15.00;99.90;;;;;;2063722;28;20198;-82
2023/09/16 00:03:10;;;;;;;18.97;15.23;;;14.90;99.90;;;;;;2064764;28;20659;-81
2023/09/16 00:04:11;;;;;;;17.63;15.30;;;14.90;99.90;;;;;;2065373;28;20186;-83
2023/09/16 00:05:12;;;;;;;16.20;14.50;;;14.90;99.90;;;;;;2063905;28;20587;-82
2023/09/16 00:06:13;;;;;;;18.73;14.93;;;14.90;99.90;;;;;;2063601;28;20210;-82
2023/09/16 00:07:13;;;;;;;17.80;15.63;;;14.90;99.90;;;;;;2062237;28;20319;-82
2023/09/16 00:08:14;;;;;;;19.47;16.40;;;14.90;99.90;;;;;;2061293;28;20191;-80
2023/09/16 00:09:16;;;;;;;23.37;18.43;;;14.90;99.90;;;;;;2047314;29;20563;-82
2023/09/16 00:10:17;;;;;;;21.85;17.30;;;14.90;99.90;;;;;;2056805;28;20198;-82
2023/09/16 00:11:18;;;;;;;18.67;15.73;;;14.90;99.90;;;;;;2055666;28;20262;-83
2023/09/16 00:12:18;;;;;;;22.27;17.13;;;14.90;99.90;;;;;;2047013;29;20567;-80
2023/09/16 00:13:19;;;;;;;20.90;17.13;;;14.90;99.90;;;;;;2053904;28;20183;-82
2023/09/16 00:14:21;;;;;;;21.67;17.57;;;14.90;99.90;;;;;;2064139;28;20194;-82
2023/09/16 00:15:22;;;;;;;20.13;16.10;;;14.80;99.90;;;;;;2072566;28;20678;-82
2023/09/16 00:16:23;;;;;;;18.87;15.83;;;14.80;99.90;;;;;;2065544;28;20226;-82
2023/09/16 00:17:23;;;;;;;24.00;17.90;;;14.80;99.90;;;;;;2065474;28;20288;-83
2023/09/16 00:18:24;;;;;;;24.77;20.00;;;14.80;99.90;;;;;;2064987;28;20234;-81
2023/09/16 00:19:25;;;;;;;24.97;18.17;;;14.80;99.90;;;;;;2065494;28;20248;-82
2023/09/16 00:20:27;;;;;;;19.43;17.27;;;14.80;99.90;;;;;;2056933;28;20257;-83
2023/09/16 00:21:29;;;;;;;22.27;17.65;;;14.90;99.90;;;;;;2064376;28;20226;-82
2023/09/16 00:22:30;;;;;;;22.67;18.30;;;14.80;99.90;;;;;;2057342;28;20317;-82
2023/09/16 00:23:31;;;;;;;19.70;16.80;;;14.80;99.90;;;;;;2064586;28;20226;-81
2023/09/16 00:24:32;;;;;;;26.38;18.90;;;14.80;99.90;;;;;;2065432;28;21069;-82
2023/09/16 00:25:33;;;;;;;18.63;15.33;;;14.80;99.90;;;;;;2065161;28;20229;-82
2023/09/16 00:26:34;;;;;;;17.60;15.40;;;14.80;99.90;;;;;;2065235;28;20246;-83
2023/09/16 00:27:35;;;;;;;17.58;13.52;;;14.70;99.90;;;;;;2065341;28;20230;-82
2023/09/16 00:28:36;;;;;;;17.52;14.50;;;14.80;99.90;;;;;;2065086;28;20645;-82
2023/09/16 00:29:37;;;;;;;16.93;15.17;;;14.70;99.90;;;;;;2065190;28;20230;-82
2023/09/16 00:30:48;;;;;;;14.07;12.57;;;14.70;99.90;;;;;;2057995;28;20322;-83
2023/09/16 00:31:48;;;;;;;15.65;13.52;;;14.70;99.90;;;;;;2064205;28;20762;-82
2023/09/16 00:32:49;;;;;;;14.47;12.87;;;14.60;99.90;;;;;;2073306;28;20283;-82
2023/09/16 00:33:50;;;;;;;14.77;13.17;;;14.60;99.90;;;;;;2064802;28;20292;-82
2023/09/16 00:34:51;;;;;;;15.53;13.87;;;14.60;99.90;;;;;;2056988;28;20223;-82
2023/09/16 00:35:51;;;;;;;15.03;13.53;;;14.60;99.90;;;;;;2065021;28;20280;-83
2023/09/16 00:36:53;;;;;;;14.93;13.27;;;14.50;99.90;;;;;;2065218;28;20238;-83
2023/09/16 00:37:53;;;;;;;14.80;13.27;;;14.50;99.90;;;;;;2057094;28;20250;-83
2023/09/16 00:38:54;;;;;;;13.93;12.20;;;14.50;99.90;;;;;;2048688;28;20243;-83
2023/09/16 00:39:55;;;;;;;14.40;13.00;;;14.40;99.90;;;;;;2049173;28;20294;-83
2023/09/16 00:40:56;;;;;;;18.52;14.38;;;14.40;99.90;;;;;;2048751;28;20230;-83
2023/09/16 00:41:57;;;;;;;13.37;12.07;;;14.30;99.90;;;;;;2065254;28;20233;-83
2023/09/16 00:42:57;;;;;;;14.37;12.87;;;14.30;99.90;;;;;;2073085;28;20780;-82
2023/09/16 00:43:58;;;;;;;16.13;13.20;;;14.30;99.90;;;;;;2064533;28;20226;-83
2023/09/16 00:44:59;;;;;;;12.50;11.30;;;14.30;99.90;;;;;;2065243;28;20233;-82
2023/09/16 00:46:00;;;;;;;14.50;11.83;;;14.40;99.90;;;;;;2072475;28;20233;-81
2023/09/16 00:47:00;;;;;;;13.23;11.83;;;14.30;99.90;;;;;;2072391;28;20214;-83
2023/09/16 00:48:01;;;;;;;12.80;11.50;;;14.30;99.90;;;;;;2063964;28;20226;-82
2023/09/16 00:49:02;;;;;;;14.20;12.70;;;14.30;99.90;;;;;;2063639;28;20182;-83
2023/09/16 00:50:07;;;;;;;15.27;13.73;;;14.30;99.90;;;;;;2055601;28;20210;-81
2023/09/16 00:51:08;;;;;;;15.98;13.23;;;14.30;99.90;;;;;;2062887;28;20182;-82
2023/09/16 00:52:10;;;;;;;15.13;13.57;;;14.20;99.90;;;;;;2067034;28;20707;-81
2023/09/16 00:53:13;;;;;;;14.43;12.80;;;14.20;99.90;;;;;;2065665;28;20544;-80
2023/09/16 00:54:14;;;;;;;15.32;12.93;;;14.20;99.90;;;;;;2065693;28;20218;-81
2023/09/16 00:55:15;;;;;;;15.77;14.15;;;14.20;99.90;;;;;;2073868;28;20191;-81
2023/09/16 00:56:16;;;;;;;14.93;13.13;;;14.10;99.90;;;;;;2068594;28;20186;-83
2023/09/16 00:57:17;;;;;;;14.37;12.83;;;14.10;99.90;;;;;;2061243;28;20206;-83
2023/09/16 00:58:18;;;;;;;14.53;12.80;;;14.10;99.90;;;;;;2065379;28;20182;-83
2023/09/16 00:59:22;;;;;;;16.60;11.88;;;14.10;99.90;;;;;;2073117;28;20801;-83
2023/09/16 01:00:26;;;;;;;12.70;11.40;;;14.10;99.90;;;;;;2073651;28;20761;-82
2023/09/16 01:01:27;;;;;;;14.75;12.88;;;14.00;99.90;;;;;;2061469;28;20746;-82
2023/09/16 01:02:28;;;;;;;13.55;12.18;;;14.00;99.90;;;;;;2060286;28;20234;-83
2023/09/16 01:03:29;;;;;;;14.52;12.90;;;14.10;99.90;;;;;;2056559;28;20258;-83
2023/09/16 01:04:30;;;;;;;18.33;15.13;;;14.00;99.90;;;;;;2048474;28;20235;-83
2023/09/16 01:05:32;;;;;;;20.05;16.63;;;14.00;99.90;;;;;;2065047;28;20233;-82
2023/09/16 01:06:33;;;;;;;18.45;16.42;;;14.00;99.90;;;;;;2054890;28;20251;-82
2023/09/16 01:07:34;;;;;;;19.03;17.03;;;14.00;99.90;;;;;;2056834;28;20609;-82
2023/09/16 01:08:35;;;;;;;17.57;14.90;;;14.00;99.90;;;;;;2064418;28;20277;-83
2023/09/16 01:09:36;;;;;;;15.80;13.70;;;14.00;99.90;;;;;;2063917;28;20299;-83
2023/09/16 01:10:39;;;;;;;16.13;13.30;;;14.00;99.90;;;;;;2056380;28;20746;-83
2023/09/16 01:11:39;;;;;;;17.95;14.35;;;13.90;99.90;;;;;;2057054;28;20253;-83
2023/09/16 01:12:42;;;;;;;19.20;16.43;;;13.90;99.90;;;;;;2065577;28;20230;-84
2023/09/16 01:13:42;;;;;;;19.40;16.52;;;13.80;99.90;;;;;;2064817;28;20573;-82
2023/09/16 01:14:43;;;;;;;24.10;17.47;;;13.80;99.90;;;;;;2065155;28;20229;-81
2023/09/16 01:15:55;;;;;;;22.70;17.07;;;13.80;99.90;;;;;;2065377;28;20234;-82
2023/09/16 01:17:06;;;;;;;20.75;17.38;;;13.80;99.90;;;;;;2065488;28;20281;-84
2023/09/16 01:18:25;;;;;;;26.40;18.50;;;13.90;99.90;;;;;;2058266;28;20219;-83
2023/09/16 01:19:46;;;;;;;20.48;16.13;;;13.90;99.90;;;;;;2058377;28;20771;-82
2023/09/16 01:20:51;;;;;;;21.95;17.38;;;14.00;99.90;;;;;;2064062;28;20324;-84
2023/09/16 01:21:52;;;;;;;20.20;15.95;;;14.00;99.90;;;;;;2065409;28;20237;-84
2023/09/16 01:22:53;;;;;;;20.90;17.63;;;14.00;99.90;;;;;;2055107;28;20281;-83
2023/09/16 01:24:20;;;;;;;20.75;16.08;;;14.00;99.90;;;;;;2054948;28;20286;-82
2023/09/16 01:25:24;;;;;;;18.65;15.45;;;14.00;99.90;;;;;;2066817;28;20260;-85
2023/09/16 01:26:25;;;;;;;17.00;14.07;;;14.00;99.90;;;;;;2073074;28;20218;-81
2023/09/16 01:27:27;;;;;;;15.47;12.90;;;14.00;99.90;;;;;;2068273;28;20301;-83
2023/09/16 01:28:27;;;;;;;13.52;12.02;;;14.00;99.90;;;;;;2061521;28;20313;-82
2023/09/16 01:29:30;;;;;;;13.50;12.03;;;14.00;99.90;;;;;;2057840;28;20227;-83
2023/09/16 01:30:35;;;;;;;14.52;12.93;;;13.90;99.90;;;;;;2059225;28;20230;-83
2023/09/16 01:31:36;;;;;;;14.82;12.05;;;13.90;99.90;;;;;;2072612;28;20225;-84
2023/09/16 01:33:16;;;;;;;14.40;12.32;;;13.90;99.90;;;;;;2058666;28;20235;-84
2023/09/16 01:34:45;;;;;;;12.35;11.13;;;13.90;99.90;;;;;;2059207;28;20218;-84
2023/09/16 01:35:49;;;;;;;13.38;11.27;;;13.70;99.90;;;;;;2060582;28;20264;-83
2023/09/16 01:36:54;;;;;;;15.15;11.57;;;13.60;99.90;;;;;;2066323;28;20238;-84
2023/09/16 01:37:57;;;;;;;17.77;13.55;;;13.60;99.90;;;;;;2064688;28;20230;-83
2023/09/16 01:39:05;;;;;;;14.82;12.63;;;13.60;99.90;;;;;;2065022;28;20558;-82
2023/09/16 01:40:08;;;;;;;17.33;14.07;;;13.60;99.90;;;;;;2060991;28;20611;-82
2023/09/16 01:41:09;;;;;;;13.73;12.20;;;13.60;99.90;;;;;;2065091;28;20225;-82
2023/09/16 01:42:11;;;;;;;13.73;11.30;;;13.50;99.90;;;;;;2057196;28;20224;-83
2023/09/16 01:43:11;;;;;;;12.13;10.90;;;13.40;99.90;;;;;;2055253;28;20179;-83
2023/09/16 01:44:12;;;;;;;11.63;10.47;;;13.50;99.90;;;;;;2064295;28;20799;-83
2023/09/16 01:45:14;;;;;;;13.68;12.23;;;13.50;99.90;;;;;;2068532;28;20624;-83
2023/09/16 01:46:15;;;;;;;12.82;11.55;;;13.50;99.90;;;;;;2064705;28;20213;-82
2023/09/16 01:47:16;;;;;;;14.02;12.50;;;13.40;99.90;;;;;;2057377;28;20182;-82
2023/09/16 01:48:17;;;;;;;14.00;12.60;;;13.40;99.90;;;;;;2064265;28;20178;-84
2023/09/16 01:49:17;;;;;;;16.23;13.20;;;13.30;99.90;;;;;;2063202;28;20277;-82
2023/09/16 01:50:18;;;;;;;15.33;13.60;;;13.30;99.90;;;;;;2057031;28;20683;-82
2023/09/16 01:51:19;;;;;;;14.40;12.77;;;13.30;99.90;;;;;;2056051;28;20185;-82
2023/09/16 01:52:20;;;;;;;14.53;13.03;;;13.30;99.90;;;;;;2056618;28;20464;-82
2023/09/16 01:53:20;;;;;;;14.33;12.07;;;13.30;99.90;;;;;;2056072;28;20202;-83
2023/09/16 01:54:21;;;;;;;14.10;12.60;;;13.40;99.90;;;;;;2063478;28;20253;-83
2023/09/16 01:55:22;;;;;;;14.27;12.77;;;13.30;99.90;;;;;;2069786;28;20248;-83
2023/09/16 01:56:23;;;;;;;15.60;12.63;;;13.30;99.90;;;;;;2072352;28;20560;-82
2023/09/16 01:57:23;;;;;;;13.87;12.43;;;13.30;99.90;;;;;;2055875;28;20258;-83
2023/09/16 01:58:24;;;;;;;15.10;12.30;;;13.30;99.90;;;;;;2062933;28;20726;-83
2023/09/16 01:59:25;;;;;;;15.77;12.93;;;13.30;99.90;;;;;;2071392;28;20245;-83
2023/09/16 02:00:26;;;;;;;14.70;12.77;;;13.30;99.90;;;;;;2070311;28;20237;-84
2023/09/16 02:01:26;;;;;;;14.27;12.77;;;13.30;99.90;;;;;;2072560;28;20252;-83
2023/09/16 02:02:27;;;;;;;14.10;12.57;;;13.20;99.90;;;;;;2072425;28;20288;-83
2023/09/16 02:03:28;;;;;;;15.13;12.97;;;13.30;99.90;;;;;;2063776;28;20735;-84
2023/09/16 02:04:28;;;;;;;13.33;11.93;;;13.30;99.90;;;;;;2063960;28;20241;-83
2023/09/16 02:05:29;;;;;;;14.03;12.27;;;13.30;99.90;;;;;;2054221;28;20234;-82
2023/09/16 02:06:30;;;;;;;12.80;11.53;;;13.30;99.90;;;;;;2071125;28;20240;-81
2023/09/16 02:07:31;;;;;;;12.17;11.00;;;13.40;99.90;;;;;;2072799;28;20249;-83
2023/09/16 02:08:31;;;;;;;13.43;12.00;;;13.30;99.90;;;;;;2064340;28;20230;-84
2023/09/16 02:09:32;;;;;;;13.77;12.37;;;13.40;99.90;;;;;;2064276;28;20226;-82
2023/09/16 02:10:33;;;;;;;14.33;12.83;;;13.30;99.90;;;;;;2064068;28;20245;-84
2023/09/16 02:11:33;;;;;;;11.67;10.17;;;13.30;99.90;;;;;;2055583;28;20230;-82
2023/09/16 02:12:34;;;;;;;11.47;10.27;;;13.30;99.90;;;;;;2062464;28;20265;-81
2023/09/16 02:13:38;;;;;;;12.93;11.10;;;13.20;99.90;;;;;;2069631;28;20718;-83
2023/09/16 02:14:38;;;;;;;12.57;11.25;;;13.30;99.90;;;;;;2060878;28;20747;-83
2023/09/16 02:15:39;;;;;;;11.03;9.90;;;13.20;99.90;;;;;;2064557;28;20245;-81
2023/09/16 02:16:40;;;;;;;12.00;10.70;;;13.30;99.90;;;;;;2071596;28;20264;-83
2023/09/16 02:17:41;;;;;;;12.07;10.87;;;13.20;99.90;;;;;;2056966;28;20719;-82
2023/09/16 02:18:41;;;;;;;12.53;10.77;;;13.30;99.90;;;;;;2057127;28;20711;-84
2023/09/16 02:19:42;;;;;;;12.73;11.43;;;13.20;99.90;;;;;;2063666;28;20237;-84
2023/09/16 02:20:43;;;;;;;11.43;10.23;;;13.20;99.90;;;;;;2063612;28;20234;-83
2023/09/16 02:21:44;;;;;;;12.23;10.87;;;13.30;99.90;;;;;;2061051;28;20222;-83
2023/09/16 02:22:44;;;;;;;11.20;10.10;;;13.20;99.90;;;;;;2056831;28;20227;-84
2023/09/16 02:23:45;;;;;;;9.97;8.97;;;13.30;99.90;;;;;;2064121;28;20230;-84
2023/09/16 02:24:46;;;;;;;12.83;10.77;;;13.30;99.90;;;;;;2064782;28;20679;-83
2023/09/16 02:25:46;;;;;;;10.33;9.33;;;13.20;99.90;;;;;;2063995;28;20313;-82
2023/09/16 02:26:47;;;;;;;11.57;10.47;;;13.20;99.90;;;;;;2064479;28;20735;-83
2023/09/16 02:27:49;;;;;;;12.30;11.00;;;13.20;99.90;;;;;;2055982;28;20238;-82
2023/09/16 02:28:49;;;;;;;11.60;10.35;;;13.10;99.90;;;;;;2063910;28;20234;-83
2023/09/16 02:29:50;;;;;;;11.07;9.97;;;13.10;99.90;;;;;;2064183;28;20234;-83
2023/09/16 02:30:51;;;;;;;10.70;9.30;;;13.10;99.90;;;;;;2063916;28;20253;-82
2023/09/16 02:31:51;;;;;;;11.27;9.90;;;13.00;99.90;;;;;;2056536;28;20227;-82
2023/09/16 02:32:52;;;;;;;11.63;10.43;;;13.00;99.90;;;;;;2064266;28;20237;-83
2023/09/16 02:33:59;;;;;;;10.23;9.23;;;13.10;99.90;;;;;;2064094;28;20230;-83
2023/09/16 02:35:00;;;;;;;9.93;8.93;;;13.10;99.90;;;;;;2063589;28;20261;-84
2023/09/16 02:36:00;;;;;;;10.57;9.40;;;13.00;99.90;;;;;;2056081;28;20274;-84
2023/09/16 02:37:01;;;;;;;11.60;10.50;;;13.00;99.90;;;;;;2063515;28;20222;-82
2023/09/16 02:38:02;;;;;;;9.88;8.95;;;12.90;99.90;;;;;;2057584;28;20188;-83
2023/09/16 02:39:03;;;;;;;11.43;10.23;;;12.80;99.90;;;;;;2055260;28;20189;-82
2023/09/16 02:40:05;;;;;;;12.40;11.10;;;12.80;99.90;;;;;;2056162;28;20266;-82
2023/09/16 02:41:06;;;;;;;12.55;11.20;;;12.70;99.90;;;;;;2063657;28;20693;-83
2023/09/16 02:42:07;;;;;;;13.63;12.10;;;12.80;99.90;;;;;;2063451;28;20174;-81
2023/09/16 02:43:08;;;;;;;12.80;11.60;;;12.90;99.90;;;;;;2056396;28;20206;-83
2023/09/16 02:44:09;;;;;;;18.98;14.30;;;12.90;99.90;;;;;;2046677;28;20570;-82
2023/09/16 02:45:10;;;;;;;14.67;13.17;;;13.00;99.90;;;;;;2053797;28;20187;-84
2023/09/16 02:46:11;;;;;;;14.57;12.88;;;13.00;99.90;;;;;;2055980;28;20251;-84
2023/09/16 02:47:11;;;;;;;12.17;10.97;;;13.10;99.90;;;;;;2056256;28;20179;-84
2023/09/16 02:48:17;;;;;;;13.07;11.27;;;13.10;99.90;;;;;;2063504;28;20202;-84
2023/09/16 02:49:17;;;;;;;13.27;11.88;;;13.10;99.90;;;;;;2071482;28;20658;-83
2023/09/16 02:50:18;;;;;;;12.27;11.07;;;13.10;99.90;;;;;;2064927;28;20197;-83
2023/09/16 02:51:19;;;;;;;12.40;11.03;;;13.10;99.90;;;;;;2070786;28;20256;-83
2023/09/16 02:52:20;;;;;;;12.53;11.10;;;13.10;99.90;;;;;;2055501;28;20215;-82
2023/09/16 02:53:21;;;;;;;12.80;11.50;;;13.20;99.90;;;;;;2064017;28;20225;-83
2023/09/16 02:54:22;;;;;;;13.30;11.90;;;13.20;99.90;;;;;;2062233;28;20284;-83
2023/09/16 02:55:23;;;;;;;14.03;12.63;;;13.30;99.90;;;;;;2063031;28;20917;-82
2023/09/16 02:56:23;;;;;;;14.17;12.50;;;13.40;99.90;;;;;;2067535;28;20845;-83
2023/09/16 02:57:24;;;;;;;14.47;12.97;;;13.40;99.90;;;;;;2063476;28;20230;-82
2023/09/16 02:58:25;;;;;;;14.47;12.90;;;13.40;99.90;;;;;;2056075;28;20241;-82
2023/09/16 02:59:26;;;;;;;14.27;12.77;;;13.50;99.90;;;;;;2054891;28;20651;-83
2023/09/16 03:00:26;;;;;;;12.43;11.13;;;13.50;99.90;;;;;;2054008;28;20314;-83
2023/09/16 03:01:27;;;;;;;13.73;12.33;;;13.50;99.90;;;;;;2060159;28;20246;-82
2023/09/16 03:02:28;;;;;;;12.67;11.37;;;13.50;99.90;;;;;;2060412;28;20234;-83
2023/09/16 03:03:29;;;;;;;13.60;11.93;;;13.40;99.90;;;;;;2047496;28;20294;-83
2023/09/16 03:04:29;;;;;;;13.45;12.05;;;13.40;99.90;;;;;;2047991;28;20238;-83
2023/09/16 03:05:30;;;;;;;15.10;13.13;;;13.50;99.90;;;;;;2047687;28;20270;-83
2023/09/16 03:06:31;;;;;;;14.80;12.73;;;13.40;99.90;;;;;;2048586;28;20666;-84
2023/09/16 03:07:31;;;;;;;14.27;11.90;;;13.50;99.90;;;;;;2047116;28;20241;-83
2023/09/16 03:08:32;;;;;;;13.60;11.97;;;13.60;99.90;;;;;;2048604;28;20231;-84
2023/09/16 03:09:33;;;;;;;13.00;11.60;;;13.70;99.90;;;;;;2061582;28;20245;-84
2023/09/16 03:10:34;;;;;;;13.40;12.03;;;13.70;99.90;;;;;;2062640;28;20230;-82
2023/09/16 03:11:37;;;;;;;12.70;11.20;;;13.70;99.90;;;;;;2055284;28;20712;-83
2023/09/16 03:12:38;;;;;;;12.88;9.63;;;13.60;99.90;;;;;;2055804;28;20242;-83
2023/09/16 03:13:39;;;;;;;12.20;10.27;;;13.60;99.90;;;;;;2061801;28;20234;-84
2023/09/16 03:14:39;;;;;;;13.00;10.53;;;13.70;99.90;;;;;;2063606;28;20234;-82
2023/09/16 03:15:46;;;;;;;11.50;10.40;;;13.60;99.90;;;;;;2053582;28;20254;-84
2023/09/16 03:16:46;;;;;;;11.38;9.90;;;13.40;99.90;;;;;;2064457;28;20242;-84
2023/09/16 03:17:47;;;;;;;12.17;10.87;;;13.50;99.90;;;;;;2061823;28;20242;-82
2023/09/16 03:18:50;;;;;;;12.63;11.33;;;13.50;99.90;;;;;;2055730;28;20227;-84
2023/09/16 03:19:50;;;;;;;13.13;11.82;;;13.50;99.90;;;;;;2055489;28;20611;-84
2023/09/16 03:20:51;;;;;;;12.67;11.43;;;13.40;99.90;;;;;;2055595;28;20231;-84
2023/09/16 03:21:52;;;;;;;11.33;10.17;;;13.50;99.90;;;;;;2056617;28;20249;-82
2023/09/16 03:22:52;;;;;;;12.13;10.93;;;13.50;99.90;;;;;;2063830;28;20273;-82
2023/09/16 03:23:53;;;;;;;13.23;11.40;;;13.50;99.90;;;;;;2071627;28;20257;-82
2023/09/16 03:24:54;;;;;;;12.13;10.93;;;13.40;99.90;;;;;;2069582;28;20234;-84
2023/09/16 03:25:54;;;;;;;13.97;11.77;;;13.40;99.90;;;;;;2064907;28;20269;-84
2023/09/16 03:26:55;;;;;;;12.70;11.00;;;13.40;99.90;;;;;;2065892;28;20229;-84
2023/09/16 03:27:56;;;;;;;12.03;10.83;;;13.40;99.90;;;;;;2064628;28;20234;-84
2023/09/16 03:28:57;;;;;;;12.80;11.03;;;13.40;99.90;;;;;;2064130;28;20229;-84
2023/09/16 03:29:58;;;;;;;12.60;11.27;;;13.40;99.90;;;;;;2064275;28;20253;-83
2023/09/16 03:30:58;;;;;;;14.00;12.50;;;13.40;99.90;;;;;;2064742;28;20637;-84
2023/09/16 03:31:59;;;;;;;12.67;11.20;;;13.40;99.90;;;;;;2063922;28;20268;-84
2023/09/16 03:33:00;;;;;;;14.90;12.70;;;13.40;99.90;;;;;;2063645;28;20226;-83
2023/09/16 03:34:00;;;;;;;13.17;11.87;;;13.40;99.90;;;;;;2064677;28;20237;-84
2023/09/16 03:35:01;;;;;;;13.17;11.77;;;13.50;99.90;;;;;;2064166;28;20226;-83
2023/09/16 03:36:02;;;;;;;13.77;11.77;;;13.50;99.90;;;;;;2072363;28;20606;-82
2023/09/16 03:37:03;;;;;;;13.18;11.15;;;13.50;99.90;;;;;;2073154;28;20193;-84
2023/09/16 03:38:04;;;;;;;14.20;12.23;;;13.70;99.90;;;;;;2063815;28;20175;-83
2023/09/16 03:39:05;;;;;;;15.05;12.55;;;13.60;99.90;;;;;;2063986;28;20179;-84
2023/09/16 03:40:06;;;;;;;13.53;11.70;;;13.60;99.90;;;;;;2063665;28;20195;-82
2023/09/16 03:41:07;;;;;;;13.65;12.25;;;13.60;99.90;;;;;;2063656;28;20655;-84
2023/09/16 03:42:08;;;;;;;13.00;11.15;;;13.60;99.90;;;;;;2062798;28;20230;-83
2023/09/16 03:43:09;;;;;;;11.70;10.50;;;13.70;99.90;;;;;;2063803;28;20333;-83
2023/09/16 03:44:10;;;;;;;11.90;10.70;;;13.70;99.90;;;;;;2063865;28;20189;-84
2023/09/16 03:45:11;;;;;;;12.00;10.57;;;13.70;99.90;;;;;;2047533;28;20610;-83
2023/09/16 03:46:12;;;;;;;11.40;10.25;;;13.70;99.90;;;;;;2059563;28;20663;-82
2023/09/16 03:47:13;;;;;;;12.13;10.93;;;13.70;99.90;;;;;;2064067;28;20192;-83
2023/09/16 03:48:13;;;;;;;11.77;10.23;;;13.70;99.90;;;;;;2063851;28;20220;-84
2023/09/16 03:49:14;;;;;;;12.77;10.80;;;13.50;99.90;;;;;;2055364;28;20179;-83
2023/09/16 03:50:15;;;;;;;10.90;9.80;;;13.50;99.90;;;;;;2056461;28;20187;-83
2023/09/16 03:51:16;;;;;;;11.50;10.30;;;13.40;99.90;;;;;;2059537;28;20179;-84
2023/09/16 03:52:16;;;;;;;11.73;10.53;;;13.30;99.90;;;;;;2061237;28;20197;-84
2023/09/16 03:53:18;;;;;;;10.73;9.67;;;13.30;99.90;;;;;;2055368;28;20192;-84
2023/09/16 03:54:19;;;;;;;10.75;9.75;;;13.40;99.90;;;;;;2063870;28;20205;-84
2023/09/16 03:55:20;;;;;;;12.07;10.50;;;13.20;99.90;;;;;;2062728;28;20316;-84
2023/09/16 03:56:21;;;;;;;11.70;10.48;;;13.30;99.90;;;;;;2048053;28;20255;-84
2023/09/16 03:57:21;;;;;;;10.53;9.53;;;13.20;99.90;;;;;;2053821;28;20318;-83
2023/09/16 03:58:22;;;;;;;12.20;11.00;;;13.20;99.90;;;;;;2046510;29;20242;-82
2023/09/16 03:59:23;;;;;;;11.73;10.57;;;13.30;99.90;;;;;;2062841;28;20234;-84
2023/09/16 04:00:23;;;;;;;11.93;10.60;;;13.30;99.90;;;;;;2062892;28;20222;-84
2023/09/16 04:01:24;;;;;;;11.70;10.23;;;13.40;99.90;;;;;;2055068;28;20223;-83
2023/09/16 04:02:25;;;;;;;12.47;11.17;;;13.40;99.90;;;;;;2063143;28;20348;-82
2023/09/16 04:03:26;;;;;;;11.23;10.13;;;13.50;99.90;;;;;;2062548;28;20251;-83
2023/09/16 04:04:26;;;;;;;13.60;11.13;;;13.50;99.90;;;;;;2070655;28;20230;-83
2023/09/16 04:05:27;;;;;;;12.57;11.27;;;13.50;99.90;;;;;;2060378;28;20284;-81
2023/09/16 04:06:28;;;;;;;11.90;10.70;;;13.50;99.90;;;;;;2052203;28;20314;-84
2023/09/16 04:07:30;;;;;;;10.90;9.80;;;13.60;99.90;;;;;;2047144;29;20263;-84
2023/09/16 04:08:31;;;;;;;12.93;11.07;;;13.60;99.90;;;;;;2057609;28;20230;-83
2023/09/16 04:09:32;;;;;;;11.98;10.75;;;13.60;99.90;;;;;;2057207;28;20678;-84
2023/09/16 04:10:33;;;;;;;11.47;10.33;;;13.60;99.90;;;;;;2065492;28;20373;-84
2023/09/16 04:11:33;;;;;;;11.80;10.60;;;13.60;99.90;;;;;;2064625;28;20253;-84
2023/09/16 04:12:34;;;;;;;11.60;10.13;;;13.60;99.90;;;;;;2064675;28;20238;-84
2023/09/16 04:13:35;;;;;;;11.60;9.85;;;13.60;99.90;;;;;;2064931;28;20264;-84
2023/09/16 04:14:36;;;;;;;11.20;10.10;;;13.70;99.90;;;;;;2065903;28;20238;-84
2023/09/16 04:15:37;;;;;;;11.80;10.30;;;13.70;99.90;;;;;;2057532;28;20223;-84
2023/09/16 04:16:39;;;;;;;11.67;10.43;;;13.60;99.90;;;;;;2065223;28;20245;-84
2023/09/16 04:17:39;;;;;;;11.15;10.05;;;13.70;99.90;;;;;;2057060;28;20234;-84
2023/09/16 04:18:40;;;;;;;12.10;10.90;;;13.70;99.90;;;;;;2072849;28;20665;-84
2023/09/16 04:19:41;;;;;;;11.17;9.93;;;13.70;99.90;;;;;;2072606;28;20229;-83
2023/09/16 04:20:42;;;;;;;13.97;11.60;;;13.80;99.90;;;;;;2060647;28;20234;-84
2023/09/16 04:21:42;;;;;;;11.57;10.03;;;13.70;99.90;;;;;;2056535;28;20341;-82
2023/09/16 04:22:43;;;;;;;10.23;9.23;;;13.60;99.90;;;;;;2056304;28;20280;-84
2023/09/16 04:23:44;;;;;;;13.25;10.98;;;13.60;99.90;;;;;;2055751;28;20232;-83
2023/09/16 04:24:46;;;;;;;12.40;10.37;;;13.70;99.90;;;;;;2055441;28;20331;-84
2023/09/16 04:25:46;;;;;;;10.52;9.43;;;13.60;99.90;;;;;;2056988;28;20234;-83
2023/09/16 04:26:47;;;;;;;10.67;9.57;;;13.70;99.90;;;;;;2056533;28;20613;-84
2023/09/16 04:27:48;;;;;;;11.33;10.00;;;13.70;99.90;;;;;;2056683;28;20235;-83
2023/09/16 04:28:48;;;;;;;13.50;12.10;;;13.80;99.90;;;;;;2072751;28;20331;-82
2023/09/16 04:29:50;;;;;;;12.00;10.00;;;13.70;99.90;;;;;;2072467;28;20229;-83
2023/09/16 04:30:52;;;;;;;11.55;10.38;;;13.70;99.90;;;;;;2064984;28;20218;-83
2023/09/16 04:31:52;;;;;;;10.93;9.77;;;13.70;99.90;;;;;;2065022;28;20226;-83
2023/09/16 04:32:55;;;;;;;11.73;10.50;;;13.60;99.90;;;;;;2056760;28;20270;-83
2023/09/16 04:33:56;;;;;;;11.63;10.43;;;13.60;99.90;;;;;;2057550;28;20277;-84
2023/09/16 04:34:58;;;;;;;13.73;9.77;;;13.60;99.90;;;;;;2065413;28;20801;-82
2023/09/16 04:36:00;;;;;;;10.32;9.30;;;13.60;99.90;;;;;;2065281;28;20226;-83
2023/09/16 04:37:02;;;;;;;12.00;10.43;;;13.70;99.90;;;;;;2065780;28;20714;-82
2023/09/16 04:38:03;;;;;;;11.88;10.68;;;13.80;99.90;;;;;;2063841;28;20207;-82
2023/09/16 04:39:04;;;;;;;11.00;9.77;;;13.80;99.90;;;;;;2063426;28;20187;-84
2023/09/16 04:40:12;;;;;;;10.13;9.13;;;13.80;99.90;;;;;;2056677;28;20207;-83
2023/09/16 04:41:13;;;;;;;12.18;10.77;;;13.90;99.90;;;;;;2065069;28;20550;-82
2023/09/16 04:42:14;;;;;;;12.07;9.88;;;14.00;99.90;;;;;;2064397;28;20683;-84
2023/09/16 04:43:15;;;;;;;11.07;9.97;;;14.00;99.90;;;;;;2064554;28;20193;-82
2023/09/16 04:44:16;;;;;;;11.93;10.37;;;14.00;99.90;;;;;;2072428;28;20185;-84
2023/09/16 04:45:17;;;;;;;9.20;8.30;;;14.00;99.90;;;;;;2072066;28;20178;-84
2023/09/16 04:46:18;;;;;;;11.03;9.90;;;14.10;99.90;;;;;;2064562;28;20691;-82
2023/09/16 04:47:18;;;;;;;10.00;9.10;;;14.10;99.90;;;;;;2063923;28;20626;-84
2023/09/16 04:48:22;;;;;;;9.80;8.90;;;14.10;99.90;;;;;;2064193;28;20191;-83
2023/09/16 04:49:23;;;;;;;9.48;8.30;;;14.10;99.90;;;;;;2063825;28;20280;-82
2023/09/16 04:50:25;;;;;;;10.27;9.17;;;14.10;99.90;;;;;;2064205;28;20237;-84
2023/09/16 04:51:25;;;;;;;9.63;8.68;;;14.10;99.90;;;;;;2064601;28;20237;-83
2023/09/16 04:52:29;;;;;;;8.83;7.93;;;13.90;99.90;;;;;;2056847;28;20316;-83
2023/09/16 04:53:32;;;;;;;9.77;8.77;;;13.90;99.90;;;;;;2054897;28;20233;-84
2023/09/16 04:54:32;;;;;;;9.38;8.48;;;13.90;99.90;;;;;;2056192;28;20334;-83
2023/09/16 04:55:33;;;;;;;9.83;8.83;;;13.90;99.90;;;;;;2054272;28;20235;-82
2023/09/16 04:56:35;;;;;;;10.17;9.17;;;13.90;99.90;;;;;;2072411;28;20233;-84
2023/09/16 04:57:36;;;;;;;11.32;10.07;;;14.00;99.90;;;;;;2080299;28;20461;-83
2023/09/16 04:58:37;;;;;;;10.93;9.83;;;14.10;99.90;;;;;;2065162;28;20230;-83
2023/09/16 04:59:37;;;;;;;9.77;8.60;;;14.00;99.90;;;;;;2048705;28;20231;-83
2023/09/16 05:00:38;;;;;;;9.73;8.73;;;14.10;99.90;;;;;;2064058;28;20241;-82
2023/09/16 05:01:39;;;;;;;10.17;9.17;;;14.10;99.90;;;;;;2055329;28;20226;-83
2023/09/16 05:02:39;;;;;;;10.10;9.10;;;14.10;99.90;;;;;;2064399;28;20328;-82
2023/09/16 05:03:40;;;;;;;9.10;7.70;;;14.00;99.90;;;;;;2063944;28;20249;-83
2023/09/16 05:04:41;;;;;;;8.90;8.00;;;14.10;99.90;;;;;;2055818;28;20234;-84
2023/09/16 05:05:42;;;;;;;9.33;8.43;;;14.00;99.90;;;;;;2063869;28;20238;-84
2023/09/16 05:06:42;;;;;;;9.07;8.23;;;14.10;99.90;;;;;;2064918;28;20268;-83
2023/09/16 05:07:43;;;;;;;8.27;7.43;;;14.00;99.90;;;;;;2056109;28;20292;-83
2023/09/16 05:08:44;;;;;;;9.13;8.23;;;14.00;99.90;;;;;;2064404;28;20757;-84
2023/09/16 05:09:44;;;;;;;8.77;7.57;;;14.00;99.90;;;;;;2055871;28;20308;-84
2023/09/16 05:10:51;;;;;;;8.60;7.80;;;13.90;99.90;;;;;;2056248;28;20256;-84
2023/09/16 05:11:52;;;;;;;8.30;7.50;;;13.80;99.90;;;;;;2064845;28;20269;-84
2023/09/16 05:12:53;;;;;;;8.17;7.37;;;13.80;99.90;;;;;;2056027;28;20234;-84
2023/09/16 05:13:54;;;;;;;8.33;7.53;;;13.90;99.90;;;;;;2072114;28;20226;-83